sensor_id;sensor_type;location;lat;lon;timestamp;pressure;altitude;pressure_sealevel;temperature;humidity
56270;BME280;42176;43.240;27.880;2022-10-28T00:02:21;101482.31;;;12.21;100.00
56270;BME280;42176;43.240;27.880;2022-10-28T00:04:46;101494.66;;;12.25;100.00
56270;BME280;42176;43.240;27.880;2022-10-28T00:07:11;101492.06;;;12.17;100.00
56270;BME280;42176;43.240;27.880;2022-10-28T00:09:37;101486.81;;;12.08;100.00
56270;BME280;42176;43.240;27.880;2022-10-28T00:12:02;101490.38;;;12.03;100.00
56270;BME280;42176;43.240;27.880;2022-10-28T00:14:28;101493.94;;;11.99;100.00
56270;BME280;42176;43.240;27.880;2022-10-28T00:16:53;101488.66;;;11.96;100.00
56270;BME280;42176;43.240;27.880;2022-10-28T00:19:19;101487.81;;;11.90;100.00
56270;BME280;42176;43.240;27.880;2022-10-28T00:21:44;101490.44;;;11.88;100.00
56270;BME280;42176;43.240;27.880;2022-10-28T00:24:12;101483.38;;;11.84;100.00
56270;BME280;42176;43.240;27.880;2022-10-28T00:26:39;101485.19;;;11.82;100.00
56270;BME280;42176;43.240;27.880;2022-10-28T00:29:10;101486.06;;;11.81;100.00
56270;BME280;42176;43.240;27.880;2022-10-28T00:31:37;101486.97;;;11.80;100.00
56270;BME280;42176;43.240;27.880;2022-10-28T00:34:04;101492.28;;;11.80;100.00
56270;BME280;42176;43.240;27.880;2022-10-28T00:36:33;101486.97;;;11.77;100.00
56270;BME280;42176;43.240;27.880;2022-10-28T00:39:00;101481.66;;;11.77;100.00
56270;BME280;42176;43.240;27.880;2022-10-28T00:41:29;101481.69;;;11.73;100.00
56270;BME280;42176;43.240;27.880;2022-10-28T00:43:56;101481.69;;;11.73;100.00
56270;BME280;42176;43.240;27.880;2022-10-28T00:48:51;101472.84;;;11.67;100.00
56270;BME280;42176;43.240;27.880;2022-10-28T00:51:20;101477.31;;;11.66;100.00
56270;BME280;42176;43.240;27.880;2022-10-28T00:53:48;101465.81;;;11.64;100.00
56270;BME280;42176;43.240;27.880;2022-10-28T00:56:16;101468.47;;;11.64;100.00
56270;BME280;42176;43.240;27.880;2022-10-28T00:58:44;101466.69;;;11.60;100.00
56270;BME280;42176;43.240;27.880;2022-10-28T01:01:10;101472.91;;;11.56;100.00
56270;BME280;42176;43.240;27.880;2022-10-28T01:03:35;101475.56;;;11.53;100.00
56270;BME280;42176;43.240;27.880;2022-10-28T01:06:01;101466.75;;;11.49;100.00
56270;BME280;42176;43.240;27.880;2022-10-28T01:08:27;101473.84;;;11.49;100.00
56270;BME280;42176;43.240;27.880;2022-10-28T01:14:31;101461.44;;;11.46;100.00
56270;BME280;42176;43.240;27.880;2022-10-28T01:20:12;101453.47;;;11.46;100.00
56270;BME280;42176;43.240;27.880;2022-10-28T01:26:04;101462.34;;;11.47;100.00
56270;BME280;42176;43.240;27.880;2022-10-28T01:31:43;101462.34;;;11.43;100.00
56270;BME280;42176;43.240;27.880;2022-10-28T01:37:13;101464.13;;;11.38;100.00
56270;BME280;42176;43.240;27.880;2022-10-28T01:39:56;101462.34;;;11.37;100.00
56270;BME280;42176;43.240;27.880;2022-10-28T01:45:33;101460.63;;;11.30;99.94
56270;BME280;42176;43.240;27.880;2022-10-28T01:48:03;101465.03;;;11.33;100.00
56270;BME280;42176;43.240;27.880;2022-10-28T01:50:40;101459.72;;;11.30;100.00
56270;BME280;42176;43.240;27.880;2022-10-28T01:53:13;101457.09;;;11.22;99.85
56270;BME280;42176;43.240;27.880;2022-10-28T01:55:42;101457.97;;;11.27;99.39
56270;BME280;42176;43.240;27.880;2022-10-28T01:58:12;101461.53;;;11.23;99.02
56270;BME280;42176;43.240;27.880;2022-10-28T02:00:39;101467.75;;;11.19;98.83
56270;BME280;42176;43.240;27.880;2022-10-28T02:03:07;101461.56;;;11.17;99.10
56270;BME280;42176;43.240;27.880;2022-10-28T02:05:44;101459.78;;;11.17;99.27
56270;BME280;42176;43.240;27.880;2022-10-28T02:13:51;101462.44;;;11.16;98.22
56270;BME280;42176;43.240;27.880;2022-10-28T02:24:17;101458.91;;;11.07;99.21
56270;BME280;42176;43.240;27.880;2022-10-28T02:26:55;101454.53;;;11.03;99.73
56270;BME280;42176;43.240;27.880;2022-10-28T02:29:34;101459.81;;;11.06;99.50
56270;BME280;42176;43.240;27.880;2022-10-28T02:32:08;101451.88;;;11.00;99.80
56270;BME280;42176;43.240;27.880;2022-10-28T02:34:39;101446.59;;;10.97;99.24
56270;BME280;42176;43.240;27.880;2022-10-28T02:37:11;101457.22;;;10.95;97.54
56270;BME280;42176;43.240;27.880;2022-10-28T02:39:41;101459.00;;;10.89;97.46
56270;BME280;42176;43.240;27.880;2022-10-28T02:42:34;101456.34;;;10.81;98.74
56270;BME280;42176;43.240;27.880;2022-10-28T02:45:11;101459.00;;;10.76;99.43
56270;BME280;42176;43.240;27.880;2022-10-28T02:47:41;101455.50;;;10.74;99.07
56270;BME280;42176;43.240;27.880;2022-10-28T02:50:13;101469.63;;;10.73;99.57
56270;BME280;42176;43.240;27.880;2022-10-28T02:52:41;101447.53;;;10.66;100.00
56270;BME280;42176;43.240;27.880;2022-10-28T02:55:08;101466.09;;;10.71;100.00
56270;BME280;42176;43.240;27.880;2022-10-28T02:57:36;101473.16;;;10.69;99.85
56270;BME280;42176;43.240;27.880;2022-10-28T03:00:09;101466.09;;;10.65;98.70
56270;BME280;42176;43.240;27.880;2022-10-28T03:02:35;101471.41;;;10.59;98.48
56270;BME280;42176;43.240;27.880;2022-10-28T03:05:03;101474.94;;;10.55;98.89
56270;BME280;42176;43.240;27.880;2022-10-28T03:07:29;101474.94;;;10.48;98.60
56270;BME280;42176;43.240;27.880;2022-10-28T03:09:54;101471.38;;;10.43;99.38
56270;BME280;42176;43.240;27.880;2022-10-28T03:12:20;101466.09;;;10.39;100.00
56270;BME280;42176;43.240;27.880;2022-10-28T03:14:45;101469.59;;;10.33;100.00
56270;BME280;42176;43.240;27.880;2022-10-28T03:17:10;101462.53;;;10.23;100.00
56270;BME280;42176;43.240;27.880;2022-10-28T03:19:36;101479.31;;;10.29;99.94
56270;BME280;42176;43.240;27.880;2022-10-28T03:22:01;101477.56;;;10.27;100.00
56270;BME280;42176;43.240;27.880;2022-10-28T03:24:27;101481.97;;;10.21;100.00
56270;BME280;42176;43.240;27.880;2022-10-28T03:26:52;101476.69;;;10.25;100.00
56270;BME280;42176;43.240;27.880;2022-10-28T03:29:18;101480.19;;;10.20;99.73
56270;BME280;42176;43.240;27.880;2022-10-28T03:31:43;101477.53;;;10.16;99.27
56270;BME280;42176;43.240;27.880;2022-10-28T03:34:09;101480.19;;;10.14;99.29
56270;BME280;42176;43.240;27.880;2022-10-28T03:36:34;101484.59;;;10.14;99.41
56270;BME280;42176;43.240;27.880;2022-10-28T03:39:00;101486.38;;;10.12;99.99
56270;BME280;42176;43.240;27.880;2022-10-28T03:41:25;101487.22;;;10.12;100.00
56270;BME280;42176;43.240;27.880;2022-10-28T03:43:51;101483.69;;;10.09;99.70
56270;BME280;42176;43.240;27.880;2022-10-28T03:46:16;101480.19;;;10.08;99.84
56270;BME280;42176;43.240;27.880;2022-10-28T03:48:41;101490.78;;;10.08;99.97
56270;BME280;42176;43.240;27.880;2022-10-28T03:51:07;101483.72;;;10.07;100.00
56270;BME280;42176;43.240;27.880;2022-10-28T03:53:32;101483.69;;;10.01;99.82
56270;BME280;42176;43.240;27.880;2022-10-28T03:56:00;101476.63;;;10.03;100.00
56270;BME280;42176;43.240;27.880;2022-10-28T03:58:26;101485.47;;;10.05;100.00
56270;BME280;42176;43.240;27.880;2022-10-28T04:00:52;101476.63;;;10.03;100.00
56270;BME280;42176;43.240;27.880;2022-10-28T04:03:19;101483.69;;;10.01;100.00
56270;BME280;42176;43.240;27.880;2022-10-28T04:05:45;101467.78;;;9.92;100.00
56270;BME280;42176;43.240;27.880;2022-10-28T04:08:17;101461.59;;;9.89;100.00
56270;BME280;42176;43.240;27.880;2022-10-28T04:10:44;101483.69;;;10.01;100.00
56270;BME280;42176;43.240;27.880;2022-10-28T04:13:09;101474.84;;;9.99;100.00
56270;BME280;42176;43.240;27.880;2022-10-28T04:15:35;101489.88;;;10.03;100.00
56270;BME280;42176;43.240;27.880;2022-10-28T04:18:01;101480.16;;;10.02;100.00
56270;BME280;42176;43.240;27.880;2022-10-28T04:20:27;101483.69;;;10.01;99.87
56270;BME280;42176;43.240;27.880;2022-10-28T04:22:53;101487.22;;;10.00;99.59
56270;BME280;42176;43.240;27.880;2022-10-28T04:25:22;101478.38;;;9.92;99.65
56270;BME280;42176;43.240;27.880;2022-10-28T04:27:48;101474.84;;;9.89;100.00
56270;BME280;42176;43.240;27.880;2022-10-28T04:30:14;101488.97;;;9.98;100.00
56270;BME280;42176;43.240;27.880;2022-10-28T04:32:40;101484.56;;;9.95;100.00
56270;BME280;42176;43.240;27.880;2022-10-28T04:35:07;101496.06;;;9.96;99.69
56270;BME280;42176;43.240;27.880;2022-10-28T04:37:32;101477.50;;;9.85;99.56
56270;BME280;42176;43.240;27.880;2022-10-28T04:39:58;101496.06;;;9.96;99.37
56270;BME280;42176;43.240;27.880;2022-10-28T04:42:23;101480.13;;;9.83;98.75
56270;BME280;42176;43.240;27.880;2022-10-28T04:44:49;101501.34;;;9.89;99.40
56270;BME280;42176;43.240;27.880;2022-10-28T04:47:15;101497.81;;;9.90;99.00
56270;BME280;42176;43.240;27.880;2022-10-28T04:49:41;101492.53;;;9.94;99.29
56270;BME280;42176;43.240;27.880;2022-10-28T04:52:06;101504.88;;;9.98;99.96
56270;BME280;42176;43.240;27.880;2022-10-28T04:54:32;101502.22;;;10.01;99.70
56270;BME280;42176;43.240;27.880;2022-10-28T04:56:57;101500.50;;;10.06;98.71
56270;BME280;42176;43.240;27.880;2022-10-28T04:59:23;101500.50;;;10.09;98.95
56270;BME280;42176;43.240;27.880;2022-10-28T05:01:48;101494.31;;;10.10;99.61
56270;BME280;42176;43.240;27.880;2022-10-28T05:04:14;101500.50;;;10.15;98.78
56270;BME280;42176;43.240;27.880;2022-10-28T05:06:39;101503.16;;;10.21;98.66
56270;BME280;42176;43.240;27.880;2022-10-28T05:09:05;101514.66;;;10.28;99.18
56270;BME280;42176;43.240;27.880;2022-10-28T05:11:30;101513.75;;;10.28;98.65
56270;BME280;42176;43.240;27.880;2022-10-28T05:13:55;101518.94;;;9.75;100.00
56270;BME280;42176;43.240;27.880;2022-10-28T05:16:21;101526.06;;;9.98;100.00
56270;BME280;42176;43.240;27.880;2022-10-28T05:18:46;101538.47;;;10.14;100.00
56270;BME280;42176;43.240;27.880;2022-10-28T05:21:12;101538.56;;;10.45;100.00
56270;BME280;42176;43.240;27.880;2022-10-28T05:23:38;101536.81;;;10.85;100.00
56270;BME280;42176;43.240;27.880;2022-10-28T05:26:03;101524.31;;;11.39;100.00
56270;BME280;42176;43.240;27.880;2022-10-28T05:28:29;101533.19;;;11.32;100.00
56270;BME280;42176;43.240;27.880;2022-10-28T05:30:54;101518.94;;;11.55;100.00
56270;BME280;42176;43.240;27.880;2022-10-28T05:33:20;101540.28;;;12.86;95.14
56270;BME280;42176;43.240;27.880;2022-10-28T05:35:45;101530.38;;;13.84;88.26
56270;BME280;42176;43.240;27.880;2022-10-28T05:38:11;101528.97;;;14.79;83.07
56270;BME280;42176;43.240;27.880;2022-10-28T05:40:36;101530.47;;;15.88;78.74
56270;BME280;42176;43.240;27.880;2022-10-28T05:43:02;101540.16;;;16.68;74.92
56270;BME280;42176;43.240;27.880;2022-10-28T05:45:28;101535.50;;;16.40;73.29
56270;BME280;42176;43.240;27.880;2022-10-28T05:47:53;101541.38;;;16.18;75.38
56270;BME280;42176;43.240;27.880;2022-10-28T05:50:19;101547.41;;;16.26;75.37
56270;BME280;42176;43.240;27.880;2022-10-28T05:52:46;101540.53;;;16.52;73.65
56270;BME280;42176;43.240;27.880;2022-10-28T05:55:12;101540.94;;;17.09;72.11
56270;BME280;42176;43.240;27.880;2022-10-28T05:57:37;101545.81;;;17.28;70.79
56270;BME280;42176;43.240;27.880;2022-10-28T06:00:03;101538.00;;;16.82;72.52
56270;BME280;42176;43.240;27.880;2022-10-28T06:02:29;101552.25;;;16.84;72.82
56270;BME280;42176;43.240;27.880;2022-10-28T06:04:54;101542.31;;;16.53;73.82
56270;BME280;42176;43.240;27.880;2022-10-28T06:07:20;101546.56;;;16.24;75.05
56270;BME280;42176;43.240;27.880;2022-10-28T06:09:45;101553.28;;;16.03;76.97
56270;BME280;42176;43.240;27.880;2022-10-28T06:12:11;101560.97;;;15.75;78.67
56270;BME280;42176;43.240;27.880;2022-10-28T06:14:36;101556.63;;;15.71;80.38
56270;BME280;42176;43.240;27.880;2022-10-28T06:17:02;101511.03;;;15.34;81.23
56270;BME280;42176;43.240;27.880;2022-10-28T06:19:30;101545.47;;;15.50;82.50
56270;BME280;42176;43.240;27.880;2022-10-28T06:21:55;101548.94;;;15.55;81.51
56270;BME280;42176;43.240;27.880;2022-10-28T06:24:21;101542.53;;;15.62;81.65
56270;BME280;42176;43.240;27.880;2022-10-28T06:26:46;101551.66;;;15.52;82.25
56270;BME280;42176;43.240;27.880;2022-10-28T06:29:15;101541.31;;;15.33;83.09
56270;BME280;42176;43.240;27.880;2022-10-28T06:31:42;101561.91;;;15.28;83.57
56270;BME280;42176;43.240;27.880;2022-10-28T06:34:08;101557.59;;;15.21;85.02
56270;BME280;42176;43.240;27.880;2022-10-28T06:36:34;101561.31;;;15.11;86.02
56270;BME280;42176;43.240;27.880;2022-10-28T06:39:00;101562.53;;;14.94;85.72
56270;BME280;42176;43.240;27.880;2022-10-28T06:41:25;101561.94;;;14.76;86.76
56270;BME280;42176;43.240;27.880;2022-10-28T06:43:51;101559.28;;;14.75;86.50
56270;BME280;42176;43.240;27.880;2022-10-28T06:46:16;101570.94;;;14.69;87.31
56270;BME280;42176;43.240;27.880;2022-10-28T06:48:42;101569.25;;;14.62;88.06
56270;BME280;42176;43.240;27.880;2022-10-28T06:51:07;101553.34;;;14.56;88.64
56270;BME280;42176;43.240;27.880;2022-10-28T06:53:33;101564.75;;;14.64;89.02
56270;BME280;42176;43.240;27.880;2022-10-28T06:55:58;101570.94;;;14.69;89.41
56270;BME280;42176;43.240;27.880;2022-10-28T06:58:24;101569.94;;;14.76;89.08
56270;BME280;42176;43.240;27.880;2022-10-28T07:00:53;101558.25;;;14.84;87.87
56270;BME280;42176;43.240;27.880;2022-10-28T07:03:24;101569.41;;;15.07;86.28
56270;BME280;42176;43.240;27.880;2022-10-28T07:05:49;101560.63;;;15.01;85.88
56270;BME280;42176;43.240;27.880;2022-10-28T07:08:16;101575.53;;;15.13;86.08
56270;BME280;42176;43.240;27.880;2022-10-28T07:10:41;101568.56;;;15.05;85.83
56270;BME280;42176;43.240;27.880;2022-10-28T07:13:07;101579.50;;;14.90;85.48
56270;BME280;42176;43.240;27.880;2022-10-28T07:15:32;101575.41;;;14.66;86.77
56270;BME280;42176;43.240;27.880;2022-10-28T07:17:58;101576.59;;;14.48;87.92
56270;BME280;42176;43.240;27.880;2022-10-28T07:20:25;101582.66;;;14.57;87.48
56270;BME280;42176;43.240;27.880;2022-10-28T07:23:09;101581.88;;;15.07;86.21
56270;BME280;42176;43.240;27.880;2022-10-28T07:25:34;101563.97;;;15.59;82.95
56270;BME280;42176;43.240;27.880;2022-10-28T07:28:00;101554.13;;;15.63;81.18
56270;BME280;42176;43.240;27.880;2022-10-28T07:30:27;101557.56;;;15.68;81.21
56270;BME280;42176;43.240;27.880;2022-10-28T07:32:53;101564.56;;;15.74;80.37
56270;BME280;42176;43.240;27.880;2022-10-28T07:35:19;101575.41;;;16.11;79.54
56270;BME280;42176;43.240;27.880;2022-10-28T07:37:50;101572.34;;;16.28;79.04
56270;BME280;42176;43.240;27.880;2022-10-28T07:40:20;101562.44;;;16.34;78.98
56270;BME280;42176;43.240;27.880;2022-10-28T07:42:45;101529.78;;;16.55;77.76
56270;BME280;42176;43.240;27.880;2022-10-28T07:45:11;101564.88;;;17.48;75.76
56270;BME280;42176;43.240;27.880;2022-10-28T07:47:37;101571.00;;;18.15;70.61
56270;BME280;42176;43.240;27.880;2022-10-28T07:50:04;101568.22;;;19.02;67.71
56270;BME280;42176;43.240;27.880;2022-10-28T07:52:33;101567.81;;;20.35;61.79
56270;BME280;42176;43.240;27.880;2022-10-28T07:55:05;101571.63;;;21.37;56.07
56270;BME280;42176;43.240;27.880;2022-10-28T07:57:36;101565.25;;;22.18;53.16
56270;BME280;42176;43.240;27.880;2022-10-28T08:00:03;101553.34;;;22.95;50.30
56270;BME280;42176;43.240;27.880;2022-10-28T08:02:29;101564.59;;;23.56;47.89
56270;BME280;42176;43.240;27.880;2022-10-28T08:04:54;101563.84;;;24.04;46.19
56270;BME280;42176;43.240;27.880;2022-10-28T08:07:21;101566.84;;;24.62;44.43
56270;BME280;42176;43.240;27.880;2022-10-28T08:09:46;101569.84;;;25.04;43.34
56270;BME280;42176;43.240;27.880;2022-10-28T08:12:13;101557.94;;;25.51;42.85
56270;BME280;42176;43.240;27.880;2022-10-28T08:14:45;101562.50;;;25.94;42.35
56270;BME280;42176;43.240;27.880;2022-10-28T08:17:10;101558.34;;;25.60;41.99
56270;BME280;42176;43.240;27.880;2022-10-28T08:19:36;101558.59;;;25.69;41.80
56270;BME280;42176;43.240;27.880;2022-10-28T08:22:02;101559.38;;;25.57;42.07
56270;BME280;42176;43.240;27.880;2022-10-28T08:24:30;101559.97;;;25.77;41.13
56270;BME280;42176;43.240;27.880;2022-10-28T08:27:00;101570.97;;;25.16;42.21
56270;BME280;42176;43.240;27.880;2022-10-28T08:29:25;101562.53;;;24.75;42.07
56270;BME280;42176;43.240;27.880;2022-10-28T08:31:50;101561.84;;;24.24;43.09
56270;BME280;42176;43.240;27.880;2022-10-28T08:34:16;101561.97;;;23.88;43.83
56270;BME280;42176;43.240;27.880;2022-10-28T08:36:41;101559.47;;;23.68;44.36
56270;BME280;42176;43.240;27.880;2022-10-28T08:39:07;101564.00;;;23.16;45.28
56270;BME280;42176;43.240;27.880;2022-10-28T08:41:39;101565.75;;;21.69;49.39
56270;BME280;42176;43.240;27.880;2022-10-28T08:44:34;101570.56;;;20.56;53.18
56270;BME280;42176;43.240;27.880;2022-10-28T08:48:00;101567.75;;;19.90;56.04
56270;BME280;42176;43.240;27.880;2022-10-28T08:50:26;101562.22;;;19.46;58.73
56270;BME280;42176;43.240;27.880;2022-10-28T08:55:44;101564.22;;;18.87;62.23
56270;BME280;42176;43.240;27.880;2022-10-28T09:00:50;101572.44;;;18.55;64.33
56270;BME280;42176;43.240;27.880;2022-10-28T09:03:21;101569.91;;;18.51;65.42
56270;BME280;42176;43.240;27.880;2022-10-28T09:06:03;101569.06;;;18.49;65.88
56270;BME280;42176;43.240;27.880;2022-10-28T09:08:40;101549.94;;;18.31;66.91
56270;BME280;42176;43.240;27.880;2022-10-28T09:16:47;101553.25;;;18.39;67.63
56270;BME280;42176;43.240;27.880;2022-10-28T09:22:40;101553.63;;;18.27;68.35
56270;BME280;42176;43.240;27.880;2022-10-28T09:27:30;101538.47;;;18.26;68.28
56270;BME280;42176;43.240;27.880;2022-10-28T09:35:23;101529.56;;;18.24;68.95
56270;BME280;42176;43.240;27.880;2022-10-28T09:38:17;101544.25;;;18.40;69.24
56270;BME280;42176;43.240;27.880;2022-10-28T09:40:51;101523.94;;;18.60;68.34
56270;BME280;42176;43.240;27.880;2022-10-28T09:43:26;101528.59;;;18.82;67.63
56270;BME280;42176;43.240;27.880;2022-10-28T09:46:21;101522.88;;;18.91;67.09
56270;BME280;42176;43.240;27.880;2022-10-28T09:48:50;101522.03;;;18.91;66.95
56270;BME280;42176;43.240;27.880;2022-10-28T09:53:58;101515.16;;;18.82;66.65
56270;BME280;42176;43.240;27.880;2022-10-28T09:56:26;101512.44;;;18.56;67.70
56270;BME280;42176;43.240;27.880;2022-10-28T09:58:53;101506.38;;;18.50;68.21
56270;BME280;42176;43.240;27.880;2022-10-28T10:01:22;101503.81;;;18.47;68.16
56270;BME280;42176;43.240;27.880;2022-10-28T10:03:49;101496.25;;;18.58;68.60
56270;BME280;42176;43.240;27.880;2022-10-28T10:06:31;101504.13;;;18.64;68.39
56270;BME280;42176;43.240;27.880;2022-10-28T10:08:59;101499.16;;;18.79;68.00
56270;BME280;42176;43.240;27.880;2022-10-28T10:11:33;101508.66;;;18.35;69.02
56270;BME280;42176;43.240;27.880;2022-10-28T10:14:06;101505.53;;;18.21;68.70
56270;BME280;42176;43.240;27.880;2022-10-28T10:16:48;101492.56;;;18.35;69.24
56270;BME280;42176;43.240;27.880;2022-10-28T10:19:17;101493.72;;;18.53;68.30
56270;BME280;42176;43.240;27.880;2022-10-28T10:21:48;101497.69;;;18.41;67.84
56270;BME280;42176;43.240;27.880;2022-10-28T10:24:26;101476.63;;;18.29;68.21
56270;BME280;42176;43.240;27.880;2022-10-28T10:26:53;101472.81;;;18.63;67.36
56270;BME280;42176;43.240;27.880;2022-10-28T10:29:20;101483.28;;;18.71;67.77
56270;BME280;42176;43.240;27.880;2022-10-28T10:32:02;101479.94;;;18.64;68.39
56270;BME280;42176;43.240;27.880;2022-10-28T10:34:28;101480.66;;;18.69;69.29
56270;BME280;42176;43.240;27.880;2022-10-28T10:36:55;101469.25;;;18.63;69.72
56270;BME280;42176;43.240;27.880;2022-10-28T10:39:26;101464.53;;;18.44;70.09
56270;BME280;42176;43.240;27.880;2022-10-28T10:41:55;101468.81;;;18.50;70.23
56270;BME280;42176;43.240;27.880;2022-10-28T10:49:33;101483.38;;;18.14;71.98
56270;BME280;42176;43.240;27.880;2022-10-28T10:52:19;101468.94;;;17.90;72.87
56270;BME280;42176;43.240;27.880;2022-10-28T10:55:02;101475.56;;;17.76;74.10
56270;BME280;42176;43.240;27.880;2022-10-28T10:57:28;101475.06;;;17.93;74.14
56270;BME280;42176;43.240;27.880;2022-10-28T10:59:55;101473.47;;;17.88;74.83
56270;BME280;42176;43.240;27.880;2022-10-28T11:02:32;101465.28;;;18.21;73.98
56270;BME280;42176;43.240;27.880;2022-10-28T11:05:02;101472.81;;;17.79;74.40
56270;BME280;42176;43.240;27.880;2022-10-28T11:07:28;101469.88;;;17.59;75.77
56270;BME280;42176;43.240;27.880;2022-10-28T11:09:57;101477.78;;;17.32;77.01
56270;BME280;42176;43.240;27.880;2022-10-28T11:18:37;101486.41;;;17.43;76.78
56270;BME280;42176;43.240;27.880;2022-10-28T11:21:02;101473.13;;;17.07;77.92
56270;BME280;42176;43.240;27.880;2022-10-28T11:26:12;101467.59;;;17.13;78.03
56270;BME280;42176;43.240;27.880;2022-10-28T11:52:48;101464.16;;;17.70;75.01
56270;BME280;42176;43.240;27.880;2022-10-28T11:56:16;101456.16;;;17.38;76.02
56270;BME280;42176;43.240;27.880;2022-10-28T11:58:50;101458.53;;;17.19;77.51
56270;BME280;42176;43.240;27.880;2022-10-28T12:17:38;101449.75;;;16.79;79.33
56270;BME280;42176;43.240;27.880;2022-10-28T12:20:25;101457.75;;;16.46;79.73
56270;BME280;42176;43.240;27.880;2022-10-28T12:22:58;101434.56;;;16.09;81.20
56270;BME280;42176;43.240;27.880;2022-10-28T12:25:28;101457.28;;;16.28;81.40
56270;BME280;42176;43.240;27.880;2022-10-28T12:27:59;101451.09;;;16.26;81.89
56270;BME280;42176;43.240;27.880;2022-10-28T12:30:28;101453.28;;;16.10;82.74
56270;BME280;42176;43.240;27.880;2022-10-28T12:33:08;101463.75;;;16.20;82.64
56270;BME280;42176;43.240;27.880;2022-10-28T12:35:50;101453.19;;;16.13;82.65
56270;BME280;42176;43.240;27.880;2022-10-28T12:38:40;101450.50;;;16.15;81.83
56270;BME280;42176;43.240;27.880;2022-10-28T12:44:11;101452.75;;;15.94;82.79
56270;BME280;42176;43.240;27.880;2022-10-28T12:50:19;101453.59;;;15.96;82.94
56270;BME280;42176;43.240;27.880;2022-10-28T12:55:41;101450.41;;;15.79;83.01
56270;BME280;42176;43.240;27.880;2022-10-28T12:58:14;101451.25;;;15.81;82.88
56270;BME280;42176;43.240;27.880;2022-10-28T13:00:54;101447.00;;;15.72;83.07
56270;BME280;42176;43.240;27.880;2022-10-28T13:03:21;101437.84;;;15.82;82.57
56270;BME280;42176;43.240;27.880;2022-10-28T13:16:28;101431.63;;;15.82;82.52
56270;BME280;42176;43.240;27.880;2022-10-28T13:19:55;101426.25;;;15.85;82.68
56270;BME280;42176;43.240;27.880;2022-10-28T13:23:20;101426.19;;;15.88;82.57
56270;BME280;42176;43.240;27.880;2022-10-28T13:25:41;101419.75;;;15.95;82.31
56270;BME280;42176;43.240;27.880;2022-10-28T13:28:19;101417.22;;;15.89;82.05
56270;BME280;42176;43.240;27.880;2022-10-28T13:30:59;101411.72;;;15.95;81.32
56270;BME280;42176;43.240;27.880;2022-10-28T13:33:29;101429.41;;;16.01;81.21
56270;BME280;42176;43.240;27.880;2022-10-28T13:36:08;101429.66;;;15.90;81.64
56270;BME280;42176;43.240;27.880;2022-10-28T13:38:35;101410.53;;;15.68;82.30
56270;BME280;42176;43.240;27.880;2022-10-28T13:52:19;101416.06;;;15.60;82.51
56270;BME280;42176;43.240;27.880;2022-10-28T13:57:42;101410.28;;;15.79;81.39
56270;BME280;42176;43.240;27.880;2022-10-28T14:02:52;101417.31;;;15.44;82.41
56270;BME280;42176;43.240;27.880;2022-10-28T14:05:25;101415.69;;;15.36;83.54
56270;BME280;42176;43.240;27.880;2022-10-28T14:08:00;101416.63;;;15.35;83.53
56270;BME280;42176;43.240;27.880;2022-10-28T14:10:29;101404.03;;;15.41;82.81
56270;BME280;42176;43.240;27.880;2022-10-28T14:15:34;101418.16;;;15.46;82.48
56270;BME280;42176;43.240;27.880;2022-10-28T14:18:04;101418.22;;;15.43;82.68
56270;BME280;42176;43.240;27.880;2022-10-28T14:20:34;101415.06;;;15.25;82.91
56270;BME280;42176;43.240;27.880;2022-10-28T14:49:54;101424.34;;;15.05;83.64
56270;BME280;42176;43.240;27.880;2022-10-28T14:52:21;101423.53;;;15.02;83.84
56270;BME280;42176;43.240;27.880;2022-10-28T14:54:52;101424.53;;;14.96;84.27
56270;BME280;42176;43.240;27.880;2022-10-28T14:57:29;101409.56;;;14.87;84.39
56270;BME280;42176;43.240;27.880;2022-10-28T14:59:55;101400.22;;;14.63;85.59
56270;BME280;42176;43.240;27.880;2022-10-28T15:02:29;101423.50;;;14.55;87.15
56270;BME280;42176;43.240;27.880;2022-10-28T15:07:45;101425.25;;;14.56;87.52
56270;BME280;42176;43.240;27.880;2022-10-28T15:10:16;101425.25;;;14.56;88.19
56270;BME280;42176;43.240;27.880;2022-10-28T15:12:43;101426.91;;;14.63;87.45
56270;BME280;42176;43.240;27.880;2022-10-28T15:15:24;101430.59;;;14.56;87.99
56270;BME280;42176;43.240;27.880;2022-10-28T15:17:51;101429.69;;;14.57;87.84
56270;BME280;42176;43.240;27.880;2022-10-28T15:22:45;101426.97;;;14.60;87.40
56270;BME280;42176;43.240;27.880;2022-10-28T15:25:15;101434.06;;;14.61;87.22
56270;BME280;42176;43.240;27.880;2022-10-28T15:27:43;101432.44;;;14.51;87.31
56270;BME280;42176;43.240;27.880;2022-10-28T15:32:51;101429.81;;;14.49;86.90
56270;BME280;42176;43.240;27.880;2022-10-28T15:37:59;101434.25;;;14.50;86.55
56270;BME280;42176;43.240;27.880;2022-10-28T15:40:29;101421.91;;;14.44;86.52
56270;BME280;42176;43.240;27.880;2022-10-28T15:42:57;101430.75;;;14.46;86.33
56270;BME280;42176;43.240;27.880;2022-10-28T15:45:26;101428.09;;;14.45;86.35
56270;BME280;42176;43.240;27.880;2022-10-28T15:47:53;101429.09;;;14.39;86.39
56270;BME280;42176;43.240;27.880;2022-10-28T15:50:25;101441.56;;;14.37;86.72
56270;BME280;42176;43.240;27.880;2022-10-28T15:53:37;101439.94;;;14.30;86.67
56270;BME280;42176;43.240;27.880;2022-10-28T15:55:41;101424.97;;;14.21;86.61
56270;BME280;42176;43.240;27.880;2022-10-28T16:00:35;101429.34;;;14.24;nan
56270;BME280;42176;43.240;27.880;2022-10-28T16:03:25;101434.69;;;14.24;86.88
56270;BME280;42176;43.240;27.880;2022-10-28T16:05:51;101417.88;;;14.19;87.04